Vanua Mbalavu, Fiji
Current Conditions -  °F | °C
As of 4:00 PM on Friday 31 Oct 2014 (Local Time) from NFNA Reporting Station
Broken Clouds Broken Clouds  
Wind Chill: 81°   Ceiling: 2000
Heat Index: 86°   Visibility: 6mi
Dew Point: 75°   Wind: 9mph
Humidity: 84%   Direction: 110°ESE
Pressure: 29.91"   Gusts: NA
Location:  17.25°S, 178.92°W
Report Text: NFNA 310400Z 11008KT 9999 BKN020 BKN048 27/24 Q1013
Loading
Personal Weather Stations






























Interactive Weather Map
Tropical Storm Tracking
New forecast layout! Learn more

10-Day Weather Forecast

Advertisements
Track Severe Weather on mobile